sensor_id;sensor_type;location;lat;lon;timestamp;temperature;humidity
30534;DHT22;17318;52.390;9.754;2023-07-29T00:01:23;20.90;99.90
30534;DHT22;17318;52.390;9.754;2023-07-29T00:03:49;20.90;99.90
30534;DHT22;17318;52.390;9.754;2023-07-29T00:06:14;20.90;99.90
30534;DHT22;17318;52.390;9.754;2023-07-29T00:08:40;20.90;99.90
30534;DHT22;17318;52.390;9.754;2023-07-29T00:11:06;20.90;99.90
30534;DHT22;17318;52.390;9.754;2023-07-29T00:13:31;20.90;99.90
30534;DHT22;17318;52.390;9.754;2023-07-29T00:15:57;20.90;99.90
30534;DHT22;17318;52.390;9.754;2023-07-29T00:18:23;20.90;99.90
30534;DHT22;17318;52.390;9.754;2023-07-29T00:20:49;20.80;99.90
30534;DHT22;17318;52.390;9.754;2023-07-29T00:23:17;20.90;99.90
30534;DHT22;17318;52.390;9.754;2023-07-29T00:25:44;20.80;99.90
30534;DHT22;17318;52.390;9.754;2023-07-29T00:28:12;20.80;99.90
30534;DHT22;17318;52.390;9.754;2023-07-29T00:30:37;20.80;99.90
30534;DHT22;17318;52.390;9.754;2023-07-29T00:33:03;20.80;99.90
30534;DHT22;17318;52.390;9.754;2023-07-29T00:35:29;20.80;99.90
30534;DHT22;17318;52.390;9.754;2023-07-29T00:37:54;20.80;99.90
30534;DHT22;17318;52.390;9.754;2023-07-29T00:40:21;20.80;99.90
30534;DHT22;17318;52.390;9.754;2023-07-29T00:42:48;20.80;99.90
30534;DHT22;17318;52.390;9.754;2023-07-29T00:45:13;20.70;99.90
30534;DHT22;17318;52.390;9.754;2023-07-29T00:47:39;20.70;99.90
30534;DHT22;17318;52.390;9.754;2023-07-29T00:50:09;20.70;99.90
30534;DHT22;17318;52.390;9.754;2023-07-29T00:52:36;20.70;99.90
30534;DHT22;17318;52.390;9.754;2023-07-29T00:55:03;20.70;99.90
30534;DHT22;17318;52.390;9.754;2023-07-29T00:57:29;20.70;99.90
30534;DHT22;17318;52.390;9.754;2023-07-29T00:59:55;20.60;99.90
30534;DHT22;17318;52.390;9.754;2023-07-29T01:02:21;20.60;99.90
30534;DHT22;17318;52.390;9.754;2023-07-29T01:04:58;20.60;99.90
30534;DHT22;17318;52.390;9.754;2023-07-29T01:07:33;20.60;99.90
30534;DHT22;17318;52.390;9.754;2023-07-29T01:10:03;20.60;99.90
30534;DHT22;17318;52.390;9.754;2023-07-29T01:12:47;20.50;99.90
30534;DHT22;17318;52.390;9.754;2023-07-29T01:15:16;20.50;99.90
30534;DHT22;17318;52.390;9.754;2023-07-29T01:17:54;20.50;99.90
30534;DHT22;17318;52.390;9.754;2023-07-29T01:20:21;20.50;99.90
30534;DHT22;17318;52.390;9.754;2023-07-29T01:22:48;20.40;99.90
30534;DHT22;17318;52.390;9.754;2023-07-29T01:25:14;20.40;99.90
30534;DHT22;17318;52.390;9.754;2023-07-29T01:27:41;20.40;99.90
30534;DHT22;17318;52.390;9.754;2023-07-29T01:30:07;20.40;99.90
30534;DHT22;17318;52.390;9.754;2023-07-29T01:35:19;20.30;99.90
30534;DHT22;17318;52.390;9.754;2023-07-29T01:37:51;20.30;99.90
30534;DHT22;17318;52.390;9.754;2023-07-29T01:40:18;20.30;99.90
30534;DHT22;17318;52.390;9.754;2023-07-29T01:42:44;20.20;99.90
30534;DHT22;17318;52.390;9.754;2023-07-29T01:45:11;20.20;99.90
30534;DHT22;17318;52.390;9.754;2023-07-29T01:47:36;20.20;99.90
30534;DHT22;17318;52.390;9.754;2023-07-29T01:50:06;20.20;99.90
30534;DHT22;17318;52.390;9.754;2023-07-29T01:52:32;20.20;99.90
30534;DHT22;17318;52.390;9.754;2023-07-29T01:54:57;20.20;99.90
30534;DHT22;17318;52.390;9.754;2023-07-29T01:57:23;20.20;99.90
30534;DHT22;17318;52.390;9.754;2023-07-29T01:59:48;20.30;99.90
30534;DHT22;17318;52.390;9.754;2023-07-29T02:02:14;20.20;99.90
30534;DHT22;17318;52.390;9.754;2023-07-29T02:04:40;20.20;99.90
30534;DHT22;17318;52.390;9.754;2023-07-29T02:07:05;20.20;99.90
30534;DHT22;17318;52.390;9.754;2023-07-29T02:09:31;20.20;99.90
30534;DHT22;17318;52.390;9.754;2023-07-29T02:11:57;20.20;99.90
30534;DHT22;17318;52.390;9.754;2023-07-29T02:14:23;20.30;99.90
30534;DHT22;17318;52.390;9.754;2023-07-29T02:16:49;20.20;99.90
30534;DHT22;17318;52.390;9.754;2023-07-29T02:19:15;20.20;99.90
30534;DHT22;17318;52.390;9.754;2023-07-29T02:21:41;20.20;99.90
30534;DHT22;17318;52.390;9.754;2023-07-29T02:24:07;20.10;99.90
30534;DHT22;17318;52.390;9.754;2023-07-29T02:26:32;20.20;99.90
30534;DHT22;17318;52.390;9.754;2023-07-29T02:28:58;20.10;99.90
30534;DHT22;17318;52.390;9.754;2023-07-29T02:31:24;20.20;99.90
30534;DHT22;17318;52.390;9.754;2023-07-29T02:33:51;20.20;99.90
30534;DHT22;17318;52.390;9.754;2023-07-29T02:36:17;20.20;99.90
30534;DHT22;17318;52.390;9.754;2023-07-29T02:38:43;20.20;99.90
30534;DHT22;17318;52.390;9.754;2023-07-29T02:41:10;20.20;99.90
30534;DHT22;17318;52.390;9.754;2023-07-29T02:43:38;20.20;99.90
30534;DHT22;17318;52.390;9.754;2023-07-29T02:46:04;20.20;99.90
30534;DHT22;17318;52.390;9.754;2023-07-29T02:48:30;20.10;99.90
30534;DHT22;17318;52.390;9.754;2023-07-29T02:50:56;20.20;99.90
30534;DHT22;17318;52.390;9.754;2023-07-29T02:53:22;20.20;99.90
30534;DHT22;17318;52.390;9.754;2023-07-29T02:55:48;20.20;99.90
30534;DHT22;17318;52.390;9.754;2023-07-29T02:58:14;20.20;99.90
30534;DHT22;17318;52.390;9.754;2023-07-29T03:00:40;20.20;99.90
30534;DHT22;17318;52.390;9.754;2023-07-29T03:03:09;20.20;99.90
30534;DHT22;17318;52.390;9.754;2023-07-29T03:05:35;20.20;99.90
30534;DHT22;17318;52.390;9.754;2023-07-29T03:08:01;20.10;99.90
30534;DHT22;17318;52.390;9.754;2023-07-29T03:10:26;20.20;99.90
30534;DHT22;17318;52.390;9.754;2023-07-29T03:12:55;20.10;99.90
30534;DHT22;17318;52.390;9.754;2023-07-29T03:15:24;20.20;99.90
30534;DHT22;17318;52.390;9.754;2023-07-29T03:17:51;20.20;99.90
30534;DHT22;17318;52.390;9.754;2023-07-29T03:20:17;20.10;99.90
30534;DHT22;17318;52.390;9.754;2023-07-29T03:22:46;20.10;99.90
30534;DHT22;17318;52.390;9.754;2023-07-29T03:25:12;20.10;99.90
30534;DHT22;17318;52.390;9.754;2023-07-29T03:27:37;20.10;99.90
30534;DHT22;17318;52.390;9.754;2023-07-29T03:30:04;20.10;99.90
30534;DHT22;17318;52.390;9.754;2023-07-29T03:32:29;20.10;99.90
30534;DHT22;17318;52.390;9.754;2023-07-29T03:34:55;20.10;99.90
30534;DHT22;17318;52.390;9.754;2023-07-29T03:37:21;20.10;99.90
30534;DHT22;17318;52.390;9.754;2023-07-29T03:39:47;20.10;99.90
30534;DHT22;17318;52.390;9.754;2023-07-29T03:42:13;20.10;99.90
30534;DHT22;17318;52.390;9.754;2023-07-29T03:44:38;20.10;99.90
30534;DHT22;17318;52.390;9.754;2023-07-29T03:47:07;20.10;99.90
30534;DHT22;17318;52.390;9.754;2023-07-29T03:49:33;20.10;99.90
30534;DHT22;17318;52.390;9.754;2023-07-29T03:51:59;20.10;99.90
30534;DHT22;17318;52.390;9.754;2023-07-29T03:54:24;20.10;99.90
30534;DHT22;17318;52.390;9.754;2023-07-29T03:56:50;20.10;99.90
30534;DHT22;17318;52.390;9.754;2023-07-29T03:59:16;20.10;99.90
30534;DHT22;17318;52.390;9.754;2023-07-29T04:01:42;20.10;99.90
30534;DHT22;17318;52.390;9.754;2023-07-29T04:04:08;20.10;99.90
30534;DHT22;17318;52.390;9.754;2023-07-29T04:06:33;20.10;99.90
30534;DHT22;17318;52.390;9.754;2023-07-29T04:08:59;20.10;99.90
30534;DHT22;17318;52.390;9.754;2023-07-29T04:11:24;20.10;99.90
30534;DHT22;17318;52.390;9.754;2023-07-29T04:13:51;20.10;99.90
30534;DHT22;17318;52.390;9.754;2023-07-29T04:16:17;20.10;99.90
30534;DHT22;17318;52.390;9.754;2023-07-29T04:18:42;20.10;99.90
30534;DHT22;17318;52.390;9.754;2023-07-29T04:21:08;20.20;99.90
30534;DHT22;17318;52.390;9.754;2023-07-29T04:23:34;20.10;99.90
30534;DHT22;17318;52.390;9.754;2023-07-29T04:26:00;20.10;99.90
30534;DHT22;17318;52.390;9.754;2023-07-29T04:28:26;20.10;99.90
30534;DHT22;17318;52.390;9.754;2023-07-29T04:30:52;20.10;99.90
30534;DHT22;17318;52.390;9.754;2023-07-29T04:33:17;20.10;99.90
30534;DHT22;17318;52.390;9.754;2023-07-29T04:35:43;20.10;99.90
30534;DHT22;17318;52.390;9.754;2023-07-29T04:38:08;20.10;99.90
30534;DHT22;17318;52.390;9.754;2023-07-29T04:40:34;20.10;99.90
30534;DHT22;17318;52.390;9.754;2023-07-29T04:43:01;20.10;99.90
30534;DHT22;17318;52.390;9.754;2023-07-29T04:45:29;20.10;99.90
30534;DHT22;17318;52.390;9.754;2023-07-29T04:47:56;20.10;99.90
30534;DHT22;17318;52.390;9.754;2023-07-29T04:50:21;20.00;99.90
30534;DHT22;17318;52.390;9.754;2023-07-29T04:52:47;20.00;99.90
30534;DHT22;17318;52.390;9.754;2023-07-29T04:55:13;20.00;99.90
30534;DHT22;17318;52.390;9.754;2023-07-29T04:57:38;20.10;99.90
30534;DHT22;17318;52.390;9.754;2023-07-29T05:00:04;20.00;99.90
30534;DHT22;17318;52.390;9.754;2023-07-29T05:02:30;20.00;99.90
30534;DHT22;17318;52.390;9.754;2023-07-29T05:04:55;20.00;99.90
30534;DHT22;17318;52.390;9.754;2023-07-29T05:07:21;20.00;99.90
30534;DHT22;17318;52.390;9.754;2023-07-29T05:09:48;20.10;99.90
30534;DHT22;17318;52.390;9.754;2023-07-29T05:12:13;20.10;99.90
30534;DHT22;17318;52.390;9.754;2023-07-29T05:14:39;20.10;99.90
30534;DHT22;17318;52.390;9.754;2023-07-29T05:17:05;20.10;99.90
30534;DHT22;17318;52.390;9.754;2023-07-29T05:19:31;20.10;99.90
30534;DHT22;17318;52.390;9.754;2023-07-29T05:21:56;20.00;99.90
30534;DHT22;17318;52.390;9.754;2023-07-29T05:24:23;20.00;99.90
30534;DHT22;17318;52.390;9.754;2023-07-29T05:26:49;19.90;99.90
30534;DHT22;17318;52.390;9.754;2023-07-29T05:29:14;19.90;99.90
30534;DHT22;17318;52.390;9.754;2023-07-29T05:31:40;19.90;99.90
30534;DHT22;17318;52.390;9.754;2023-07-29T05:34:06;19.90;99.90
30534;DHT22;17318;52.390;9.754;2023-07-29T05:36:31;19.90;99.90
30534;DHT22;17318;52.390;9.754;2023-07-29T05:38:57;20.00;99.90
30534;DHT22;17318;52.390;9.754;2023-07-29T05:41:23;20.00;99.90
30534;DHT22;17318;52.390;9.754;2023-07-29T05:43:48;20.00;99.90
30534;DHT22;17318;52.390;9.754;2023-07-29T05:46:14;20.10;99.90
30534;DHT22;17318;52.390;9.754;2023-07-29T05:48:40;20.10;99.90
30534;DHT22;17318;52.390;9.754;2023-07-29T05:51:05;20.10;99.90
30534;DHT22;17318;52.390;9.754;2023-07-29T05:53:31;20.10;99.90
30534;DHT22;17318;52.390;9.754;2023-07-29T05:55:57;20.20;99.90
30534;DHT22;17318;52.390;9.754;2023-07-29T05:58:22;20.20;99.90
30534;DHT22;17318;52.390;9.754;2023-07-29T06:00:48;20.30;99.90
30534;DHT22;17318;52.390;9.754;2023-07-29T06:03:13;20.30;99.90
30534;DHT22;17318;52.390;9.754;2023-07-29T06:05:39;20.20;99.90
30534;DHT22;17318;52.390;9.754;2023-07-29T06:08:05;20.30;99.90
30534;DHT22;17318;52.390;9.754;2023-07-29T06:10:31;20.30;99.90
30534;DHT22;17318;52.390;9.754;2023-07-29T06:12:56;20.20;99.90
30534;DHT22;17318;52.390;9.754;2023-07-29T06:15:22;20.20;99.90
30534;DHT22;17318;52.390;9.754;2023-07-29T06:17:48;20.30;99.90
30534;DHT22;17318;52.390;9.754;2023-07-29T06:20:14;20.30;99.90
30534;DHT22;17318;52.390;9.754;2023-07-29T06:22:41;20.30;99.90
30534;DHT22;17318;52.390;9.754;2023-07-29T06:25:07;20.20;99.90
30534;DHT22;17318;52.390;9.754;2023-07-29T06:27:33;20.20;99.90
30534;DHT22;17318;52.390;9.754;2023-07-29T06:29:59;20.20;99.90
30534;DHT22;17318;52.390;9.754;2023-07-29T06:32:24;20.20;99.90
30534;DHT22;17318;52.390;9.754;2023-07-29T06:34:50;20.30;99.90
30534;DHT22;17318;52.390;9.754;2023-07-29T06:37:17;20.30;99.90
30534;DHT22;17318;52.390;9.754;2023-07-29T06:39:42;20.30;99.90
30534;DHT22;17318;52.390;9.754;2023-07-29T06:42:08;20.30;99.90
30534;DHT22;17318;52.390;9.754;2023-07-29T06:44:34;20.30;99.90
30534;DHT22;17318;52.390;9.754;2023-07-29T06:46:59;20.30;99.90
30534;DHT22;17318;52.390;9.754;2023-07-29T06:49:25;20.40;99.90
30534;DHT22;17318;52.390;9.754;2023-07-29T06:51:50;20.50;99.90
30534;DHT22;17318;52.390;9.754;2023-07-29T06:54:16;20.50;99.90
30534;DHT22;17318;52.390;9.754;2023-07-29T06:56:42;20.70;99.90
30534;DHT22;17318;52.390;9.754;2023-07-29T06:59:08;20.80;99.90
30534;DHT22;17318;52.390;9.754;2023-07-29T07:01:34;20.80;99.90
30534;DHT22;17318;52.390;9.754;2023-07-29T07:04:00;20.80;99.90
30534;DHT22;17318;52.390;9.754;2023-07-29T07:06:25;20.90;99.90
30534;DHT22;17318;52.390;9.754;2023-07-29T07:08:51;20.80;99.90
30534;DHT22;17318;52.390;9.754;2023-07-29T07:11:18;20.90;99.90
30534;DHT22;17318;52.390;9.754;2023-07-29T07:13:44;21.00;99.90
30534;DHT22;17318;52.390;9.754;2023-07-29T07:16:10;21.00;99.90
30534;DHT22;17318;52.390;9.754;2023-07-29T07:18:35;21.00;99.90
30534;DHT22;17318;52.390;9.754;2023-07-29T07:21:01;21.10;99.90
30534;DHT22;17318;52.390;9.754;2023-07-29T07:23:26;21.10;99.90
30534;DHT22;17318;52.390;9.754;2023-07-29T07:25:52;21.10;99.90
30534;DHT22;17318;52.390;9.754;2023-07-29T07:28:18;21.10;99.90
30534;DHT22;17318;52.390;9.754;2023-07-29T07:30:43;21.10;99.90
30534;DHT22;17318;52.390;9.754;2023-07-29T07:33:09;21.10;99.90
30534;DHT22;17318;52.390;9.754;2023-07-29T07:35:35;21.10;99.90
30534;DHT22;17318;52.390;9.754;2023-07-29T07:38:01;21.20;99.90
30534;DHT22;17318;52.390;9.754;2023-07-29T07:40:30;21.20;99.90
30534;DHT22;17318;52.390;9.754;2023-07-29T07:42:56;21.20;99.90
30534;DHT22;17318;52.390;9.754;2023-07-29T07:45:22;21.10;99.90
30534;DHT22;17318;52.390;9.754;2023-07-29T07:47:47;21.20;99.90
30534;DHT22;17318;52.390;9.754;2023-07-29T07:50:13;21.20;99.90
30534;DHT22;17318;52.390;9.754;2023-07-29T07:52:39;21.20;99.90
30534;DHT22;17318;52.390;9.754;2023-07-29T07:55:05;21.30;99.90
30534;DHT22;17318;52.390;9.754;2023-07-29T07:57:31;21.40;99.90
30534;DHT22;17318;52.390;9.754;2023-07-29T07:59:57;21.40;99.90
30534;DHT22;17318;52.390;9.754;2023-07-29T08:02:22;21.50;99.90
30534;DHT22;17318;52.390;9.754;2023-07-29T08:04:48;21.50;99.90
30534;DHT22;17318;52.390;9.754;2023-07-29T08:07:14;21.60;99.90
30534;DHT22;17318;52.390;9.754;2023-07-29T08:09:39;21.60;99.90
30534;DHT22;17318;52.390;9.754;2023-07-29T08:12:05;21.70;99.90
30534;DHT22;17318;52.390;9.754;2023-07-29T08:14:31;21.70;99.90
30534;DHT22;17318;52.390;9.754;2023-07-29T08:16:57;21.70;99.90
30534;DHT22;17318;52.390;9.754;2023-07-29T08:19:23;21.70;99.90
30534;DHT22;17318;52.390;9.754;2023-07-29T08:21:48;21.80;99.90
30534;DHT22;17318;52.390;9.754;2023-07-29T08:24:14;21.80;99.90
30534;DHT22;17318;52.390;9.754;2023-07-29T08:26:39;21.80;99.90
30534;DHT22;17318;52.390;9.754;2023-07-29T08:29:05;21.90;99.90
30534;DHT22;17318;52.390;9.754;2023-07-29T08:31:31;22.00;99.90
30534;DHT22;17318;52.390;9.754;2023-07-29T08:33:59;22.00;99.90
30534;DHT22;17318;52.390;9.754;2023-07-29T08:36:25;21.90;99.90
30534;DHT22;17318;52.390;9.754;2023-07-29T08:38:51;22.00;99.90
30534;DHT22;17318;52.390;9.754;2023-07-29T08:41:21;22.00;99.90
30534;DHT22;17318;52.390;9.754;2023-07-29T08:44:01;21.90;99.90
30534;DHT22;17318;52.390;9.754;2023-07-29T08:46:32;21.90;99.90
30534;DHT22;17318;52.390;9.754;2023-07-29T08:48:59;21.90;99.90
30534;DHT22;17318;52.390;9.754;2023-07-29T08:51:27;21.80;99.90
30534;DHT22;17318;52.390;9.754;2023-07-29T08:53:53;21.90;99.90
30534;DHT22;17318;52.390;9.754;2023-07-29T08:56:19;21.90;99.90
30534;DHT22;17318;52.390;9.754;2023-07-29T08:58:45;21.90;99.90
30534;DHT22;17318;52.390;9.754;2023-07-29T09:01:11;21.90;99.90
30534;DHT22;17318;52.390;9.754;2023-07-29T09:03:37;21.90;99.90
30534;DHT22;17318;52.390;9.754;2023-07-29T09:06:03;21.90;99.90
30534;DHT22;17318;52.390;9.754;2023-07-29T09:08:29;21.90;99.90
30534;DHT22;17318;52.390;9.754;2023-07-29T09:10:55;21.90;99.90
30534;DHT22;17318;52.390;9.754;2023-07-29T09:13:21;22.00;99.90
30534;DHT22;17318;52.390;9.754;2023-07-29T09:15:47;22.00;99.90
30534;DHT22;17318;52.390;9.754;2023-07-29T09:18:19;22.10;99.90
30534;DHT22;17318;52.390;9.754;2023-07-29T09:20:49;22.20;99.90
30534;DHT22;17318;52.390;9.754;2023-07-29T09:23:16;22.20;99.90
30534;DHT22;17318;52.390;9.754;2023-07-29T09:25:42;22.60;99.90
30534;DHT22;17318;52.390;9.754;2023-07-29T09:28:13;23.00;99.90
30534;DHT22;17318;52.390;9.754;2023-07-29T09:30:39;23.50;99.90
30534;DHT22;17318;52.390;9.754;2023-07-29T09:33:06;23.70;99.90
30534;DHT22;17318;52.390;9.754;2023-07-29T09:35:33;23.70;99.90
30534;DHT22;17318;52.390;9.754;2023-07-29T09:37:59;23.70;99.90
30534;DHT22;17318;52.390;9.754;2023-07-29T09:40:25;23.70;99.90
30534;DHT22;17318;52.390;9.754;2023-07-29T09:42:52;23.90;99.90
30534;DHT22;17318;52.390;9.754;2023-07-29T09:45:23;23.80;99.90
30534;DHT22;17318;52.390;9.754;2023-07-29T09:47:50;23.70;99.90
30534;DHT22;17318;52.390;9.754;2023-07-29T09:50:16;23.50;99.90
30534;DHT22;17318;52.390;9.754;2023-07-29T09:52:42;23.40;99.90
30534;DHT22;17318;52.390;9.754;2023-07-29T09:55:12;23.20;99.90
30534;DHT22;17318;52.390;9.754;2023-07-29T09:57:40;23.00;99.90
30534;DHT22;17318;52.390;9.754;2023-07-29T10:00:06;23.00;99.90
30534;DHT22;17318;52.390;9.754;2023-07-29T10:02:39;23.10;99.90
30534;DHT22;17318;52.390;9.754;2023-07-29T10:05:06;23.20;99.90
30534;DHT22;17318;52.390;9.754;2023-07-29T10:07:33;23.40;99.90
30534;DHT22;17318;52.390;9.754;2023-07-29T10:10:02;23.60;99.90
30534;DHT22;17318;52.390;9.754;2023-07-29T10:12:29;23.80;99.90
30534;DHT22;17318;52.390;9.754;2023-07-29T10:14:59;24.10;99.90
30534;DHT22;17318;52.390;9.754;2023-07-29T10:17:26;24.30;99.90
30534;DHT22;17318;52.390;9.754;2023-07-29T10:19:53;24.60;99.90
30534;DHT22;17318;52.390;9.754;2023-07-29T10:22:20;24.70;99.90
30534;DHT22;17318;52.390;9.754;2023-07-29T10:24:46;24.90;99.90
30534;DHT22;17318;52.390;9.754;2023-07-29T10:27:17;25.00;99.90
30534;DHT22;17318;52.390;9.754;2023-07-29T10:29:44;25.10;99.90
30534;DHT22;17318;52.390;9.754;2023-07-29T10:32:11;25.20;99.90
30534;DHT22;17318;52.390;9.754;2023-07-29T10:34:37;25.40;99.50
30534;DHT22;17318;52.390;9.754;2023-07-29T10:37:04;25.50;98.40
30534;DHT22;17318;52.390;9.754;2023-07-29T10:39:38;25.60;97.80
30534;DHT22;17318;52.390;9.754;2023-07-29T10:42:06;25.50;96.70
30534;DHT22;17318;52.390;9.754;2023-07-29T10:47:15;25.40;96.30
30534;DHT22;17318;52.390;9.754;2023-07-29T10:49:44;25.10;96.30
30534;DHT22;17318;52.390;9.754;2023-07-29T10:52:27;25.00;96.20
30534;DHT22;17318;52.390;9.754;2023-07-29T10:54:53;24.90;96.20
30534;DHT22;17318;52.390;9.754;2023-07-29T10:57:31;24.60;96.10
30534;DHT22;17318;52.390;9.754;2023-07-29T10:59:58;24.60;96.10
30534;DHT22;17318;52.390;9.754;2023-07-29T11:02:31;24.50;96.10
30534;DHT22;17318;52.390;9.754;2023-07-29T11:04:59;24.60;96.90
30534;DHT22;17318;52.390;9.754;2023-07-29T11:07:26;24.50;97.40
30534;DHT22;17318;52.390;9.754;2023-07-29T11:09:56;24.50;97.70
30534;DHT22;17318;52.390;9.754;2023-07-29T11:12:38;24.70;97.80
30534;DHT22;17318;52.390;9.754;2023-07-29T11:15:11;24.60;97.50
30534;DHT22;17318;52.390;9.754;2023-07-29T11:20:29;24.50;97.80
30534;DHT22;17318;52.390;9.754;2023-07-29T11:22:58;24.40;97.60
30534;DHT22;17318;52.390;9.754;2023-07-29T11:25:26;24.40;97.40
30534;DHT22;17318;52.390;9.754;2023-07-29T11:27:53;24.60;97.20
30534;DHT22;17318;52.390;9.754;2023-07-29T11:30:19;24.80;97.00
30534;DHT22;17318;52.390;9.754;2023-07-29T11:32:46;24.80;96.80
30534;DHT22;17318;52.390;9.754;2023-07-29T11:35:13;24.60;96.00
30534;DHT22;17318;52.390;9.754;2023-07-29T11:37:41;24.60;95.50
30534;DHT22;17318;52.390;9.754;2023-07-29T11:40:08;24.70;95.00
30534;DHT22;17318;52.390;9.754;2023-07-29T11:42:36;24.80;94.20
30534;DHT22;17318;52.390;9.754;2023-07-29T11:45:02;24.80;92.70
30534;DHT22;17318;52.390;9.754;2023-07-29T11:47:29;24.80;91.90
30534;DHT22;17318;52.390;9.754;2023-07-29T11:49:58;24.90;91.20
30534;DHT22;17318;52.390;9.754;2023-07-29T11:52:24;25.10;91.00
30534;DHT22;17318;52.390;9.754;2023-07-29T11:54:50;25.00;90.40
30534;DHT22;17318;52.390;9.754;2023-07-29T11:57:17;25.20;90.70
30534;DHT22;17318;52.390;9.754;2023-07-29T11:59:44;25.20;90.40
30534;DHT22;17318;52.390;9.754;2023-07-29T12:02:17;25.10;90.60
30534;DHT22;17318;52.390;9.754;2023-07-29T12:04:45;25.00;91.00
30534;DHT22;17318;52.390;9.754;2023-07-29T12:07:12;25.00;91.10
30534;DHT22;17318;52.390;9.754;2023-07-29T12:09:39;25.00;91.20
30534;DHT22;17318;52.390;9.754;2023-07-29T12:12:06;25.10;90.90
30534;DHT22;17318;52.390;9.754;2023-07-29T12:14:32;25.30;90.60
30534;DHT22;17318;52.390;9.754;2023-07-29T12:17:05;25.30;90.10
30534;DHT22;17318;52.390;9.754;2023-07-29T12:19:36;25.30;89.30
30534;DHT22;17318;52.390;9.754;2023-07-29T12:22:02;25.20;89.90
30534;DHT22;17318;52.390;9.754;2023-07-29T12:24:33;25.00;90.50
30534;DHT22;17318;52.390;9.754;2023-07-29T12:26:59;25.10;90.70
30534;DHT22;17318;52.390;9.754;2023-07-29T12:29:25;25.20;90.30
30534;DHT22;17318;52.390;9.754;2023-07-29T12:31:59;25.10;89.40
30534;DHT22;17318;52.390;9.754;2023-07-29T12:34:29;25.20;90.40
30534;DHT22;17318;52.390;9.754;2023-07-29T12:36:56;25.30;89.90
30534;DHT22;17318;52.390;9.754;2023-07-29T12:39:33;25.40;89.30
30534;DHT22;17318;52.390;9.754;2023-07-29T12:42:01;25.40;89.00
30534;DHT22;17318;52.390;9.754;2023-07-29T12:44:32;25.40;88.30
30534;DHT22;17318;52.390;9.754;2023-07-29T12:47:01;25.30;89.50
30534;DHT22;17318;52.390;9.754;2023-07-29T12:49:28;25.20;90.10
30534;DHT22;17318;52.390;9.754;2023-07-29T12:51:55;25.20;90.90
30534;DHT22;17318;52.390;9.754;2023-07-29T12:54:21;25.00;91.10
30534;DHT22;17318;52.390;9.754;2023-07-29T12:56:47;25.00;91.20
30534;DHT22;17318;52.390;9.754;2023-07-29T12:59:13;25.00;91.40
30534;DHT22;17318;52.390;9.754;2023-07-29T13:01:40;24.90;91.40
30534;DHT22;17318;52.390;9.754;2023-07-29T13:04:06;24.90;91.60
30534;DHT22;17318;52.390;9.754;2023-07-29T13:06:31;25.10;91.30
30534;DHT22;17318;52.390;9.754;2023-07-29T13:08:57;25.10;91.00
30534;DHT22;17318;52.390;9.754;2023-07-29T13:11:23;25.10;90.90
30534;DHT22;17318;52.390;9.754;2023-07-29T13:13:49;25.10;90.80
30534;DHT22;17318;52.390;9.754;2023-07-29T13:16:15;25.10;89.90
30534;DHT22;17318;52.390;9.754;2023-07-29T13:18:40;25.00;90.10
30534;DHT22;17318;52.390;9.754;2023-07-29T13:21:08;25.00;89.30
30534;DHT22;17318;52.390;9.754;2023-07-29T13:23:34;25.00;89.50
30534;DHT22;17318;52.390;9.754;2023-07-29T13:25:59;25.10;90.30
30534;DHT22;17318;52.390;9.754;2023-07-29T13:28:25;25.20;90.10
30534;DHT22;17318;52.390;9.754;2023-07-29T13:30:51;25.40;89.60
30534;DHT22;17318;52.390;9.754;2023-07-29T13:33:16;25.40;88.80
30534;DHT22;17318;52.390;9.754;2023-07-29T13:35:42;25.30;89.40
30534;DHT22;17318;52.390;9.754;2023-07-29T13:38:08;25.30;88.40
30534;DHT22;17318;52.390;9.754;2023-07-29T13:40:34;25.20;88.50
30534;DHT22;17318;52.390;9.754;2023-07-29T13:42:59;25.20;88.60
30534;DHT22;17318;52.390;9.754;2023-07-29T13:45:25;25.40;88.40
30534;DHT22;17318;52.390;9.754;2023-07-29T13:47:50;25.40;87.20
30534;DHT22;17318;52.390;9.754;2023-07-29T13:50:19;25.50;87.40
30534;DHT22;17318;52.390;9.754;2023-07-29T13:52:45;25.50;87.30
30534;DHT22;17318;52.390;9.754;2023-07-29T13:55:11;25.40;87.30
30534;DHT22;17318;52.390;9.754;2023-07-29T13:57:37;25.40;86.80
30534;DHT22;17318;52.390;9.754;2023-07-29T14:00:04;25.30;87.20
30534;DHT22;17318;52.390;9.754;2023-07-29T14:02:31;25.40;87.40
30534;DHT22;17318;52.390;9.754;2023-07-29T14:04:57;25.40;87.50
30534;DHT22;17318;52.390;9.754;2023-07-29T14:07:23;25.40;87.40
30534;DHT22;17318;52.390;9.754;2023-07-29T14:09:48;25.50;87.90
30534;DHT22;17318;52.390;9.754;2023-07-29T14:12:14;25.60;87.30
30534;DHT22;17318;52.390;9.754;2023-07-29T14:14:41;25.60;87.50
30534;DHT22;17318;52.390;9.754;2023-07-29T14:17:07;25.60;86.80
30534;DHT22;17318;52.390;9.754;2023-07-29T14:19:34;25.60;87.00
30534;DHT22;17318;52.390;9.754;2023-07-29T14:22:00;25.70;87.50
30534;DHT22;17318;52.390;9.754;2023-07-29T14:24:25;25.70;87.30
30534;DHT22;17318;52.390;9.754;2023-07-29T14:26:51;25.80;87.40
30534;DHT22;17318;52.390;9.754;2023-07-29T14:29:17;25.70;86.30
30534;DHT22;17318;52.390;9.754;2023-07-29T14:31:42;25.60;86.80
30534;DHT22;17318;52.390;9.754;2023-07-29T14:34:09;25.60;87.80
30534;DHT22;17318;52.390;9.754;2023-07-29T14:36:36;25.60;87.80
30534;DHT22;17318;52.390;9.754;2023-07-29T14:39:01;25.60;87.40
30534;DHT22;17318;52.390;9.754;2023-07-29T14:41:27;25.50;87.50
30534;DHT22;17318;52.390;9.754;2023-07-29T14:43:53;25.60;87.90
30534;DHT22;17318;52.390;9.754;2023-07-29T14:46:18;25.60;87.90
30534;DHT22;17318;52.390;9.754;2023-07-29T14:48:44;25.60;87.80
30534;DHT22;17318;52.390;9.754;2023-07-29T14:51:10;25.50;88.30
30534;DHT22;17318;52.390;9.754;2023-07-29T14:53:36;25.50;88.20
30534;DHT22;17318;52.390;9.754;2023-07-29T14:56:01;25.40;88.50
30534;DHT22;17318;52.390;9.754;2023-07-29T14:58:27;25.40;89.00
30534;DHT22;17318;52.390;9.754;2023-07-29T15:00:53;25.50;89.10
30534;DHT22;17318;52.390;9.754;2023-07-29T15:03:18;25.50;88.90
30534;DHT22;17318;52.390;9.754;2023-07-29T15:05:44;25.50;88.90
30534;DHT22;17318;52.390;9.754;2023-07-29T15:08:10;25.50;89.10
30534;DHT22;17318;52.390;9.754;2023-07-29T15:10:35;25.50;89.00
30534;DHT22;17318;52.390;9.754;2023-07-29T15:13:02;25.50;89.20
30534;DHT22;17318;52.390;9.754;2023-07-29T15:15:27;25.40;89.20
30534;DHT22;17318;52.390;9.754;2023-07-29T15:17:53;25.40;89.50
30534;DHT22;17318;52.390;9.754;2023-07-29T15:20:19;25.40;89.10
30534;DHT22;17318;52.390;9.754;2023-07-29T15:22:44;25.30;88.80
30534;DHT22;17318;52.390;9.754;2023-07-29T15:25:10;25.30;89.10
30534;DHT22;17318;52.390;9.754;2023-07-29T15:27:37;25.20;89.60
30534;DHT22;17318;52.390;9.754;2023-07-29T15:30:07;25.20;89.50
30534;DHT22;17318;52.390;9.754;2023-07-29T15:32:33;25.20;90.00
30534;DHT22;17318;52.390;9.754;2023-07-29T15:34:59;25.20;90.10